Time;durP1;ratioP1;P1;durP2;ratioP2;P2;SDS_P1;SDS_P2;PMS_P1;PMS_P2;Temp;Humidity;BMP_temperature;BMP_pressure;BME280_temperature;BME280_humidity;BME280_pressure;Samples;Min_cycle;Max_cycle;Signal;HPM_P1;HPM_P2
2023/01/30 00:01:54;;;;;;;7.47;5.50;;;;;;;;;;5100883;28;20448;-72
2023/01/30 00:04:22;;;;;;;9.70;5.77;;;;;;;;;;5100330;28;20538;-72
2023/01/30 00:06:50;;;;;;;6.30;5.50;;;;;;;;;;5100208;28;20930;-72
2023/01/30 00:09:18;;;;;;;7.00;6.00;;;;;;;;;;5100410;28;20462;-72
2023/01/30 00:11:46;;;;;;;7.37;5.47;;;;;;;;;;5100309;28;20451;-72
2023/01/30 00:14:16;;;;;;;9.40;6.00;;;;;;;;;;5100418;28;20490;-72
2023/01/30 00:16:44;;;;;;;7.57;6.10;;;;;;;;;;5100340;28;20479;-72
2023/01/30 00:19:12;;;;;;;8.23;5.40;;;;;;;;;;5100126;28;21012;-72
2023/01/30 00:21:40;;;;;;;8.03;5.57;;;;;;;;;;5100249;28;20448;-72
2023/01/30 00:24:08;;;;;;;7.00;5.20;;;;;;;;;;5100134;28;20524;-72
2023/01/30 00:26:36;;;;;;;8.23;5.90;;;;;;;;;;5100414;28;20450;-72
2023/01/30 00:29:04;;;;;;;8.23;6.00;;;;;;;;;;5100336;28;20443;-72
2023/01/30 00:31:34;;;;;;;8.13;5.40;;;;;;;;;;5099949;28;20922;-71
2023/01/30 00:34:02;;;;;;;13.37;6.03;;;;;;;;;;5100105;28;20476;-72
2023/01/30 00:36:30;;;;;;;8.87;5.30;;;;;;;;;;5099742;28;20479;-72
2023/01/30 00:38:58;;;;;;;8.90;6.27;;;;;;;;;;5099951;28;20931;-72
2023/01/30 00:47:04;;;;;;;9.27;5.60;;;;;;;;;;5099637;28;20447;-72
2023/01/30 00:47:05;;;;;;;7.97;5.47;;;;;;;;;;5100103;28;20474;-72
2023/01/30 00:49:33;;;;;;;8.13;6.00;;;;;;;;;;5099828;28;20469;-71
2023/01/30 00:52:02;;;;;;;8.23;6.17;;;;;;;;;;5099770;28;20440;-72
2023/01/30 00:54:30;;;;;;;8.43;6.33;;;;;;;;;;5083206;28;20520;-72
2023/01/30 00:56:58;;;;;;;9.00;6.17;;;;;;;;;;5098717;28;20515;-72
2023/01/30 00:59:26;;;;;;;8.47;6.33;;;;;;;;;;5099740;28;20524;-72
2023/01/30 01:01:54;;;;;;;7.00;5.87;;;;;;;;;;5099090;28;20459;-72
2023/01/30 01:04:23;;;;;;;10.50;6.77;;;;;;;;;;5093929;28;20976;-72
2023/01/30 01:06:51;;;;;;;12.93;7.87;;;;;;;;;;5093278;28;20442;-72
2023/01/30 01:09:19;;;;;;;9.27;6.27;;;;;;;;;;5099199;28;20479;-72
2023/01/30 01:11:47;;;;;;;9.03;6.17;;;;;;;;;;5099059;28;20445;-72
2023/01/30 01:14:15;;;;;;;7.97;5.83;;;;;;;;;;5099269;28;20463;-72
2023/01/30 01:16:43;;;;;;;8.80;6.77;;;;;;;;;;5099149;28;20515;-72
2023/01/30 01:19:11;;;;;;;10.10;6.37;;;;;;;;;;5098791;28;20475;-72
2023/01/30 01:21:41;;;;;;;11.50;7.03;;;;;;;;;;5099058;28;20526;-71
2023/01/30 01:24:11;;;;;;;9.73;6.67;;;;;;;;;;5097423;28;20547;-72
2023/01/30 01:26:40;;;;;;;7.70;6.53;;;;;;;;;;5097319;28;20447;-72
2023/01/30 01:29:11;;;;;;;8.83;6.77;;;;;;;;;;5097065;28;20810;-72
2023/01/30 01:31:39;;;;;;;7.70;6.90;;;;;;;;;;5096967;28;20801;-72
2023/01/30 01:34:07;;;;;;;9.50;6.17;;;;;;;;;;5096707;28;21016;-72
2023/01/30 01:36:35;;;;;;;9.30;6.53;;;;;;;;;;5096843;28;20483;-72
2023/01/30 01:39:21;;;;;;;8.27;6.37;;;;;;;;;;5098169;28;20512;-72
2023/01/30 01:41:48;;;;;;;9.63;6.27;;;;;;;;;;5098711;28;20493;-72
2023/01/30 01:44:16;;;;;;;9.83;6.30;;;;;;;;;;5098824;28;20479;-72
2023/01/30 01:46:46;;;;;;;9.40;6.60;;;;;;;;;;5098885;28;20465;-72
2023/01/30 01:49:15;;;;;;;10.03;6.73;;;;;;;;;;5098366;28;20517;-72
2023/01/30 01:51:47;;;;;;;7.70;5.67;;;;;;;;;;5097624;28;20447;-72
2023/01/30 01:54:18;;;;;;;7.90;6.13;;;;;;;;;;5098311;28;20470;-72
2023/01/30 01:56:48;;;;;;;9.63;5.83;;;;;;;;;;5098607;28;20490;-72
2023/01/30 01:59:19;;;;;;;7.23;5.57;;;;;;;;;;5098469;28;20447;-72
2023/01/30 02:01:47;;;;;;;8.03;5.60;;;;;;;;;;5098543;28;20448;-72
2023/01/30 02:05:00;;;;;;;8.07;5.43;;;;;;;;;;5098091;28;20871;-72
2023/01/30 02:07:04;;;;;;;7.50;4.53;;;;;;;;;;5098228;28;20478;-72
2023/01/30 02:09:32;;;;;;;5.63;4.60;;;;;;;;;;5098096;28;20999;-72
2023/01/30 02:12:03;;;;;;;6.43;4.63;;;;;;;;;;5098546;28;20530;-72
2023/01/30 02:14:31;;;;;;;5.03;4.27;;;;;;;;;;5097998;28;20488;-72
2023/01/30 02:16:59;;;;;;;5.43;4.30;;;;;;;;;;5098589;28;20479;-72
2023/01/30 02:19:32;;;;;;;5.40;4.43;;;;;;;;;;5098096;28;20443;-72
2023/01/30 02:22:14;;;;;;;7.57;4.57;;;;;;;;;;5098193;28;20542;-72
2023/01/30 02:24:54;;;;;;;6.80;4.83;;;;;;;;;;5097928;28;20470;-72
2023/01/30 02:27:31;;;;;;;7.17;4.97;;;;;;;;;;5098247;28;20526;-72
2023/01/30 02:30:08;;;;;;;12.77;4.70;;;;;;;;;;5098015;28;20788;-72
2023/01/30 02:32:41;;;;;;;7.50;4.70;;;;;;;;;;5097764;28;20453;-71
2023/01/30 02:35:15;;;;;;;6.33;4.80;;;;;;;;;;5097589;28;20475;-72
2023/01/30 02:37:49;;;;;;;6.20;4.57;;;;;;;;;;5098084;28;20536;-72
2023/01/30 02:40:31;;;;;;;6.10;4.80;;;;;;;;;;5098093;28;20475;-72
2023/01/30 02:43:02;;;;;;;6.60;4.70;;;;;;;;;;5097916;28;20494;-72
2023/01/30 02:45:34;;;;;;;6.63;5.20;;;;;;;;;;5097711;28;20482;-72
2023/01/30 02:48:05;;;;;;;7.43;4.43;;;;;;;;;;5097882;28;20532;-71
2023/01/30 02:50:34;;;;;;;6.90;5.47;;;;;;;;;;5097632;28;20471;-71
2023/01/30 02:53:02;;;;;;;7.37;4.63;;;;;;;;;;5097667;28;20834;-71
2023/01/30 02:55:30;;;;;;;6.37;5.00;;;;;;;;;;5097623;28;20950;-71
2023/01/30 02:57:59;;;;;;;5.87;4.47;;;;;;;;;;5097743;28;20556;-71
2023/01/30 03:00:34;;;;;;;7.00;4.53;;;;;;;;;;5097805;28;20450;-72
2023/01/30 03:03:17;;;;;;;5.33;4.23;;;;;;;;;;5098568;28;20463;-71
2023/01/30 03:05:57;;;;;;;5.23;3.80;;;;;;;;;;5098564;28;20532;-71
2023/01/30 03:08:31;;;;;;;6.53;4.87;;;;;;;;;;5101504;28;20440;-71
2023/01/30 03:11:00;;;;;;;6.73;5.03;;;;;;;;;;5101654;28;20805;-72
2023/01/30 03:13:33;;;;;;;4.93;4.07;;;;;;;;;;5101422;28;20805;-71
2023/01/30 03:16:03;;;;;;;5.80;4.60;;;;;;;;;;5101566;28;20439;-71
2023/01/30 03:18:31;;;;;;;6.70;5.07;;;;;;;;;;5101716;28;20483;-72
2023/01/30 03:21:05;;;;;;;7.53;4.97;;;;;;;;;;5101172;28;20455;-72
2023/01/30 03:23:33;;;;;;;5.60;5.00;;;;;;;;;;5101409;28;20517;-71
2023/01/30 03:26:03;;;;;;;6.37;4.77;;;;;;;;;;5102183;28;20444;-71
2023/01/30 03:28:32;;;;;;;6.70;4.67;;;;;;;;;;5101618;28;20444;-70
2023/01/30 03:31:00;;;;;;;7.00;4.50;;;;;;;;;;5101247;28;21943;-71
2023/01/30 03:33:28;;;;;;;6.57;4.53;;;;;;;;;;5101124;28;20975;-70
2023/01/30 03:35:56;;;;;;;5.97;4.67;;;;;;;;;;5100608;28;20482;-70
2023/01/30 03:38:25;;;;;;;5.63;4.37;;;;;;;;;;5101032;28;20929;-70
2023/01/30 03:40:53;;;;;;;5.67;4.77;;;;;;;;;;5101002;28;20450;-70
2023/01/30 03:43:21;;;;;;;6.47;4.60;;;;;;;;;;5100883;28;21047;-71
2023/01/30 03:45:49;;;;;;;6.30;4.80;;;;;;;;;;5100960;28;20462;-70
2023/01/30 03:48:17;;;;;;;8.47;5.00;;;;;;;;;;5100903;28;20466;-71
2023/01/30 03:50:45;;;;;;;8.07;4.53;;;;;;;;;;5100674;28;20473;-70
2023/01/30 03:53:13;;;;;;;5.80;4.20;;;;;;;;;;5101041;28;20463;-70
2023/01/30 03:55:43;;;;;;;4.07;3.67;;;;;;;;;;5100918;28;20436;-70
2023/01/30 03:58:11;;;;;;;6.63;4.13;;;;;;;;;;5100866;28;20489;-70
2023/01/30 04:00:42;;;;;;;5.47;4.03;;;;;;;;;;5097053;28;20480;-69
2023/01/30 04:03:10;;;;;;;8.13;5.17;;;;;;;;;;5100194;28;20482;-69
2023/01/30 04:05:40;;;;;;;4.27;3.63;;;;;;;;;;5100051;28;20447;-69
2023/01/30 04:08:09;;;;;;;5.17;4.50;;;;;;;;;;5100248;28;20949;-69
2023/01/30 04:10:37;;;;;;;5.53;4.00;;;;;;;;;;5100591;28;20527;-69
2023/01/30 04:13:07;;;;;;;5.50;4.23;;;;;;;;;;5100428;28;20460;-69
2023/01/30 04:15:35;;;;;;;4.87;3.97;;;;;;;;;;5099846;28;20443;-69
2023/01/30 04:18:03;;;;;;;5.23;4.07;;;;;;;;;;5100240;28;20490;-69
2023/01/30 04:20:31;;;;;;;5.53;3.87;;;;;;;;;;5099736;28;20439;-69
2023/01/30 04:22:59;;;;;;;4.67;3.93;;;;;;;;;;5100238;28;20513;-68
2023/01/30 04:25:27;;;;;;;4.83;3.70;;;;;;;;;;5100362;28;20447;-69
2023/01/30 04:27:55;;;;;;;4.77;3.97;;;;;;;;;;5099817;28;20494;-69
2023/01/30 04:30:24;;;;;;;4.50;4.10;;;;;;;;;;5100327;28;20476;-69
2023/01/30 04:32:52;;;;;;;4.50;3.80;;;;;;;;;;5100467;28;20459;-69
2023/01/30 04:35:20;;;;;;;4.73;4.17;;;;;;;;;;5099914;28;20482;-70
2023/01/30 04:37:48;;;;;;;6.07;4.17;;;;;;;;;;5100363;28;20511;-69
2023/01/30 04:40:16;;;;;;;5.97;3.57;;;;;;;;;;5100405;28;20444;-69
2023/01/30 04:42:44;;;;;;;4.67;4.07;;;;;;;;;;5099838;28;20482;-69
2023/01/30 04:45:12;;;;;;;4.80;4.23;;;;;;;;;;5099967;28;20534;-69
2023/01/30 04:47:42;;;;;;;5.30;4.23;;;;;;;;;;5099913;28;20448;-69
2023/01/30 04:50:10;;;;;;;4.73;3.83;;;;;;;;;;5099520;28;20448;-69
2023/01/30 04:52:38;;;;;;;7.10;4.13;;;;;;;;;;5099904;28;20484;-69
2023/01/30 04:55:07;;;;;;;7.90;3.97;;;;;;;;;;5099695;28;20440;-68
2023/01/30 04:57:34;;;;;;;6.23;3.43;;;;;;;;;;5099788;28;20454;-68
2023/01/30 05:00:03;;;;;;;5.37;4.30;;;;;;;;;;5084180;28;20457;-68
2023/01/30 05:02:31;;;;;;;5.00;3.67;;;;;;;;;;5098406;28;20474;-69
2023/01/30 05:05:01;;;;;;;5.43;4.30;;;;;;;;;;5098960;28;20444;-69
2023/01/30 05:07:29;;;;;;;3.93;3.43;;;;;;;;;;5099269;28;20475;-68
2023/01/30 05:09:57;;;;;;;4.53;3.27;;;;;;;;;;5099287;28;20450;-69
2023/01/30 05:12:25;;;;;;;4.40;3.83;;;;;;;;;;5098985;28;20899;-68
2023/01/30 05:14:53;;;;;;;6.53;4.00;;;;;;;;;;5099194;28;20621;-69
2023/01/30 05:17:21;;;;;;;7.93;4.30;;;;;;;;;;5099376;28;20448;-69
2023/01/30 05:19:49;;;;;;;4.10;3.70;;;;;;;;;;5098405;28;20565;-69
2023/01/30 05:22:18;;;;;;;5.87;4.13;;;;;;;;;;5098744;28;20446;-68
2023/01/30 05:24:47;;;;;;;5.77;3.80;;;;;;;;;;5097986;28;20526;-68
2023/01/30 05:27:15;;;;;;;4.43;3.90;;;;;;;;;;5097975;28;20814;-69
2023/01/30 05:29:43;;;;;;;6.13;4.00;;;;;;;;;;5097811;28;20826;-69
2023/01/30 05:32:12;;;;;;;6.53;4.40;;;;;;;;;;5096857;28;20473;-69
2023/01/30 05:34:40;;;;;;;6.63;4.93;;;;;;;;;;5096503;28;20479;-69
2023/01/30 05:37:09;;;;;;;4.70;3.77;;;;;;;;;;5096786;28;20482;-69
2023/01/30 05:39:38;;;;;;;5.87;4.70;;;;;;;;;;5097094;28;20544;-69
2023/01/30 05:42:06;;;;;;;8.07;4.47;;;;;;;;;;5096861;28;20463;-69
2023/01/30 05:44:34;;;;;;;7.60;4.33;;;;;;;;;;5097460;28;21069;-69
2023/01/30 05:47:02;;;;;;;5.80;3.80;;;;;;;;;;5098813;28;20443;-68
2023/01/30 05:49:30;;;;;;;11.07;4.53;;;;;;;;;;5098288;28;20810;-68
2023/01/30 05:51:58;;;;;;;5.30;4.00;;;;;;;;;;5098768;28;20448;-68
2023/01/30 05:54:26;;;;;;;7.97;4.33;;;;;;;;;;5098278;28;20491;-68
2023/01/30 05:56:56;;;;;;;5.53;3.53;;;;;;;;;;5098598;28;20468;-68
2023/01/30 05:59:24;;;;;;;6.13;4.10;;;;;;;;;;5098536;28;20515;-68
2023/01/30 06:01:52;;;;;;;4.13;3.23;;;;;;;;;;5098496;28;20451;-68
2023/01/30 06:04:20;;;;;;;5.87;4.57;;;;;;;;;;5098412;28;20470;-68
2023/01/30 06:06:49;;;;;;;5.30;4.53;;;;;;;;;;5098239;28;20447;-68
2023/01/30 06:09:17;;;;;;;5.27;3.80;;;;;;;;;;5098296;28;20806;-68
2023/01/30 06:11:45;;;;;;;4.93;3.80;;;;;;;;;;5098390;28;20439;-68
2023/01/30 06:14:14;;;;;;;4.93;3.90;;;;;;;;;;5098389;28;20470;-68
2023/01/30 06:16:42;;;;;;;4.93;4.07;;;;;;;;;;5097983;28;20454;-68
2023/01/30 06:19:10;;;;;;;4.70;3.50;;;;;;;;;;5097982;28;20483;-68
2023/01/30 06:21:38;;;;;;;5.73;4.07;;;;;;;;;;5097722;28;20468;-68
2023/01/30 06:24:06;;;;;;;7.70;4.90;;;;;;;;;;5097935;28;20811;-68
2023/01/30 06:26:35;;;;;;;4.50;3.73;;;;;;;;;;5098235;28;20439;-68
2023/01/30 06:29:03;;;;;;;5.30;3.80;;;;;;;;;;5097773;28;20439;-68
2023/01/30 06:31:33;;;;;;;4.43;3.93;;;;;;;;;;5097877;28;20997;-68
2023/01/30 06:34:01;;;;;;;5.50;4.50;;;;;;;;;;5097503;28;20535;-69
2023/01/30 06:36:29;;;;;;;5.63;4.20;;;;;;;;;;5097449;28;21002;-68
2023/01/30 06:38:57;;;;;;;5.63;4.00;;;;;;;;;;5097577;28;20519;-68
2023/01/30 06:41:25;;;;;;;6.10;3.90;;;;;;;;;;5097672;28;20490;-68
2023/01/30 06:43:54;;;;;;;5.13;3.67;;;;;;;;;;5097563;28;20546;-68
2023/01/30 06:46:22;;;;;;;5.07;4.23;;;;;;;;;;5097725;28;20454;-69
2023/01/30 06:48:51;;;;;;;5.80;4.50;;;;;;;;;;5097857;28;20444;-69
2023/01/30 06:51:19;;;;;;;6.23;4.40;;;;;;;;;;5097298;28;20477;-69
2023/01/30 06:53:47;;;;;;;6.40;4.33;;;;;;;;;;5097674;28;20466;-69
2023/01/30 06:56:18;;;;;;;5.07;3.90;;;;;;;;;;5097856;28;20473;-68
2023/01/30 06:58:46;;;;;;;6.73;4.60;;;;;;;;;;5097504;28;20502;-69
2023/01/30 07:01:14;;;;;;;7.00;4.13;;;;;;;;;;5097576;28;20465;-69
2023/01/30 07:03:42;;;;;;;7.77;4.03;;;;;;;;;;5097377;28;20906;-69
2023/01/30 07:06:12;;;;;;;5.97;4.80;;;;;;;;;;5097057;28;20796;-69
2023/01/30 07:08:40;;;;;;;4.67;4.17;;;;;;;;;;5097671;28;20439;-69
2023/01/30 07:11:08;;;;;;;6.63;4.50;;;;;;;;;;5097593;28;20451;-69
2023/01/30 07:13:36;;;;;;;5.43;4.43;;;;;;;;;;5097399;28;20804;-68
2023/01/30 07:16:04;;;;;;;7.77;4.23;;;;;;;;;;5097586;28;20455;-68
2023/01/30 07:18:32;;;;;;;3.87;3.50;;;;;;;;;;5097321;28;20443;-68
2023/01/30 07:21:00;;;;;;;6.00;4.07;;;;;;;;;;5096949;28;20782;-69
2023/01/30 07:23:30;;;;;;;4.93;3.97;;;;;;;;;;5097543;28;20463;-68
2023/01/30 07:25:58;;;;;;;5.93;4.80;;;;;;;;;;5097265;28;20443;-68
2023/01/30 07:28:26;;;;;;;5.20;4.43;;;;;;;;;;5097581;28;20455;-68
2023/01/30 07:30:54;;;;;;;4.77;4.03;;;;;;;;;;5097203;28;20461;-68
2023/01/30 07:33:22;;;;;;;5.10;4.43;;;;;;;;;;5097349;28;20496;-68
2023/01/30 07:35:50;;;;;;;6.07;4.67;;;;;;;;;;5096681;28;20931;-68
2023/01/30 07:38:18;;;;;;;7.33;4.77;;;;;;;;;;5097311;28;20443;-69
2023/01/30 07:40:47;;;;;;;5.83;4.30;;;;;;;;;;5097369;28;20483;-69
2023/01/30 07:43:15;;;;;;;6.93;5.30;;;;;;;;;;5097391;28;20455;-69
2023/01/30 07:45:44;;;;;;;6.37;4.80;;;;;;;;;;5097456;28;20450;-69
2023/01/30 07:48:13;;;;;;;6.80;4.87;;;;;;;;;;5097401;28;20444;-68
2023/01/30 07:50:42;;;;;;;15.20;4.87;;;;;;;;;;5098976;28;20450;-68
2023/01/30 07:53:11;;;;;;;5.30;4.50;;;;;;;;;;5100929;28;20551;-70
2023/01/30 07:55:39;;;;;;;10.83;4.80;;;;;;;;;;5100924;28;20443;-69
2023/01/30 07:58:10;;;;;;;9.73;5.30;;;;;;;;;;5101011;28;20444;-69
2023/01/30 08:00:38;;;;;;;11.07;5.73;;;;;;;;;;5100612;28;20483;-69
2023/01/30 08:03:06;;;;;;;10.20;4.93;;;;;;;;;;5100655;28;20470;-69
2023/01/30 08:05:36;;;;;;;9.70;4.90;;;;;;;;;;5100426;28;20443;-69
2023/01/30 08:08:04;;;;;;;11.80;5.33;;;;;;;;;;5100440;28;21002;-69
2023/01/30 08:10:32;;;;;;;6.90;4.60;;;;;;;;;;5100546;28;20444;-69
2023/01/30 08:13:00;;;;;;;8.97;5.03;;;;;;;;;;5100516;28;20464;-69
2023/01/30 08:15:32;;;;;;;9.47;5.00;;;;;;;;;;5100457;28;20494;-69
2023/01/30 08:18:00;;;;;;;7.73;4.97;;;;;;;;;;5100323;28;20919;-69
2023/01/30 08:20:28;;;;;;;7.10;5.43;;;;;;;;;;5099725;28;20483;-69
2023/01/30 08:22:56;;;;;;;10.33;5.53;;;;;;;;;;5100350;28;20466;-69
2023/01/30 08:25:24;;;;;;;5.37;4.87;;;;;;;;;;5100486;28;20451;-69
2023/01/30 08:27:52;;;;;;;7.57;5.57;;;;;;;;;;5100053;28;20451;-69
2023/01/30 08:30:21;;;;;;;9.10;5.07;;;;;;;;;;5100146;28;20450;-69
2023/01/30 08:32:50;;;;;;;6.03;4.43;;;;;;;;;;5099966;28;20467;-69
2023/01/30 08:35:18;;;;;;;6.20;4.60;;;;;;;;;;5099636;28;20471;-69
2023/01/30 08:37:46;;;;;;;5.83;4.37;;;;;;;;;;5099931;28;20950;-69
2023/01/30 08:40:15;;;;;;;5.40;4.50;;;;;;;;;;5099798;28;20479;-69
2023/01/30 08:42:44;;;;;;;10.60;5.30;;;;;;;;;;5099730;28;20539;-69
2023/01/30 08:45:12;;;;;;;8.53;5.10;;;;;;;;;;5099756;28;20447;-70
2023/01/30 08:47:40;;;;;;;6.93;4.80;;;;;;;;;;5099750;28;21079;-69
2023/01/30 08:50:10;;;;;;;6.07;5.20;;;;;;;;;;5099537;28;20447;-69
2023/01/30 08:52:38;;;;;;;6.33;5.33;;;;;;;;;;5099935;28;20443;-69
2023/01/30 08:55:06;;;;;;;8.53;5.80;;;;;;;;;;5099366;28;20478;-69
2023/01/30 08:57:34;;;;;;;5.23;4.70;;;;;;;;;;5099750;28;20470;-69
2023/01/30 09:00:02;;;;;;;6.77;5.07;;;;;;;;;;5099893;28;20515;-69
2023/01/30 09:02:31;;;;;;;7.07;5.67;;;;;;;;;;5099274;28;20451;-69
2023/01/30 09:04:59;;;;;;;6.83;5.27;;;;;;;;;;5089074;28;20456;-69
2023/01/30 09:07:28;;;;;;;8.40;5.53;;;;;;;;;;5092391;28;20445;-69
2023/01/30 09:09:56;;;;;;;8.53;5.30;;;;;;;;;;5098273;28;20450;-69
2023/01/30 09:12:24;;;;;;;10.97;6.00;;;;;;;;;;5099344;28;20484;-69
2023/01/30 09:14:54;;;;;;;7.03;5.50;;;;;;;;;;5099113;28;20534;-69
2023/01/30 09:17:22;;;;;;;7.83;4.97;;;;;;;;;;5099004;28;20497;-69
2023/01/30 09:19:50;;;;;;;7.93;5.57;;;;;;;;;;5098447;28;20450;-69
2023/01/30 09:22:18;;;;;;;8.00;5.13;;;;;;;;;;5099119;28;20804;-69
2023/01/30 09:24:47;;;;;;;9.07;5.43;;;;;;;;;;5098829;28;20957;-68
2023/01/30 09:27:15;;;;;;;7.50;5.80;;;;;;;;;;5099237;28;20444;-69
2023/01/30 09:29:43;;;;;;;9.13;5.70;;;;;;;;;;5099084;28;20447;-69
2023/01/30 09:32:12;;;;;;;9.73;4.70;;;;;;;;;;5098701;28;20451;-70
2023/01/30 09:34:40;;;;;;;5.97;5.37;;;;;;;;;;5097770;28;20524;-69
2023/01/30 09:37:08;;;;;;;9.73;5.90;;;;;;;;;;5096840;28;20442;-69
2023/01/30 09:39:36;;;;;;;6.40;5.07;;;;;;;;;;5097032;28;20475;-69
2023/01/30 09:42:12;;;;;;;14.10;5.93;;;;;;;;;;5097697;28;20471;-69
2023/01/30 09:44:49;;;;;;;8.63;6.33;;;;;;;;;;5097965;28;20533;-69
2023/01/30 09:47:21;;;;;;;10.07;6.47;;;;;;;;;;5097846;28;20454;-69
2023/01/30 09:49:53;;;;;;;9.10;6.17;;;;;;;;;;5097486;28;20503;-69
2023/01/30 09:52:26;;;;;;;9.63;6.53;;;;;;;;;;5098410;28;20466;-69
2023/01/30 09:54:58;;;;;;;10.10;6.30;;;;;;;;;;5098392;28;20548;-69
2023/01/30 09:57:28;;;;;;;11.30;7.03;;;;;;;;;;5098805;28;20478;-69
2023/01/30 09:59:57;;;;;;;12.00;6.57;;;;;;;;;;5098546;28;20450;-69
2023/01/30 10:02:41;;;;;;;11.77;5.97;;;;;;;;;;5098568;28;20493;-69
2023/01/30 10:05:09;;;;;;;9.47;5.77;;;;;;;;;;5098122;28;20443;-69
2023/01/30 10:07:43;;;;;;;9.23;5.60;;;;;;;;;;5098791;28;20450;-69
2023/01/30 10:10:15;;;;;;;12.00;6.63;;;;;;;;;;5098213;28;20853;-69
2023/01/30 10:12:51;;;;;;;11.67;6.00;;;;;;;;;;5097810;28;20459;-69
2023/01/30 10:15:49;;;;;;;10.57;6.63;;;;;;;;;;5098404;28;20449;-70
2023/01/30 10:18:35;;;;;;;9.00;5.97;;;;;;;;;;5016136;28;20527;-69
2023/01/30 10:21:09;;;;;;;15.13;7.17;;;;;;;;;;5089506;28;20581;-69
2023/01/30 10:23:53;;;;;;;10.87;7.00;;;;;;;;;;5097954;28;20474;-70
2023/01/30 10:26:23;;;;;;;11.67;5.73;;;;;;;;;;5098018;28;20440;-70
2023/01/30 10:28:56;;;;;;;11.67;6.80;;;;;;;;;;5098181;28;20452;-70
2023/01/30 10:31:36;;;;;;;8.90;6.43;;;;;;;;;;5098243;28;20443;-70
2023/01/30 10:34:06;;;;;;;10.47;7.13;;;;;;;;;;5097759;28;20482;-70
2023/01/30 10:36:39;;;;;;;12.43;6.17;;;;;;;;;;5097762;28;20507;-70
2023/01/30 10:39:12;;;;;;;12.53;7.00;;;;;;;;;;5097859;28;20471;-70
2023/01/30 10:41:45;;;;;;;11.60;6.87;;;;;;;;;;5097698;28;21004;-69
2023/01/30 10:44:17;;;;;;;10.00;6.23;;;;;;;;;;5097960;28;20495;-70
2023/01/30 10:46:59;;;;;;;9.80;6.10;;;;;;;;;;5097817;28;20447;-69
2023/01/30 10:49:31;;;;;;;8.93;6.53;;;;;;;;;;5097666;28;20475;-70
2023/01/30 10:52:02;;;;;;;10.47;6.87;;;;;;;;;;5097989;28;20444;-70
2023/01/30 10:54:35;;;;;;;9.87;6.00;;;;;;;;;;5097572;28;20823;-70
2023/01/30 10:57:09;;;;;;;11.47;6.80;;;;;;;;;;5097601;28;20943;-69
2023/01/30 10:59:47;;;;;;;9.70;5.93;;;;;;;;;;5097991;28;20451;-69
2023/01/30 11:02:24;;;;;;;10.50;7.00;;;;;;;;;;5097873;28;20485;-69
2023/01/30 11:04:57;;;;;;;9.73;6.20;;;;;;;;;;5097313;28;20497;-70
2023/01/30 11:07:25;;;;;;;10.97;6.63;;;;;;;;;;5097532;28;20447;-69
2023/01/30 11:09:53;;;;;;;8.97;5.70;;;;;;;;;;5097705;28;20496;-70
2023/01/30 11:12:21;;;;;;;8.60;5.90;;;;;;;;;;5097390;28;20810;-69
2023/01/30 11:14:52;;;;;;;8.30;6.43;;;;;;;;;;5097385;28;20470;-69
2023/01/30 11:17:21;;;;;;;11.50;6.20;;;;;;;;;;5097744;28;20454;-70
2023/01/30 11:19:55;;;;;;;11.00;5.07;;;;;;;;;;5097286;28;20470;-70
2023/01/30 11:22:24;;;;;;;13.13;6.60;;;;;;;;;;5097224;28;20478;-69
2023/01/30 11:25:00;;;;;;;9.23;6.07;;;;;;;;;;5098787;28;20523;-69
2023/01/30 11:27:29;;;;;;;9.87;6.10;;;;;;;;;;5101368;28;20490;-69
2023/01/30 11:30:05;;;;;;;14.07;6.87;;;;;;;;;;5101414;28;20522;-69
2023/01/30 11:32:33;;;;;;;9.30;6.33;;;;;;;;;;5101354;28;20497;-70
2023/01/30 11:35:03;;;;;;;9.70;6.40;;;;;;;;;;5100683;28;20470;-70
2023/01/30 11:37:33;;;;;;;10.53;5.50;;;;;;;;;;5101410;28;20443;-69
2023/01/30 11:40:07;;;;;;;12.77;7.90;;;;;;;;;;5101515;28;20445;-69
2023/01/30 11:42:36;;;;;;;10.37;6.53;;;;;;;;;;5100815;28;20854;-69
2023/01/30 11:45:10;;;;;;;11.23;7.03;;;;;;;;;;5101274;28;20443;-69
2023/01/30 11:47:49;;;;;;;10.67;7.27;;;;;;;;;;5101355;28;20486;-70
2023/01/30 11:50:27;;;;;;;10.87;6.63;;;;;;;;;;5100524;28;20451;-69
2023/01/30 11:53:02;;;;;;;10.17;6.30;;;;;;;;;;5100881;28;20459;-69
2023/01/30 11:55:33;;;;;;;11.37;6.53;;;;;;;;;;5101040;28;20450;-70
2023/01/30 11:58:03;;;;;;;12.93;7.23;;;;;;;;;;5101073;28;20440;-69
2023/01/30 12:00:39;;;;;;;9.17;6.40;;;;;;;;;;5100830;28;20448;-70
2023/01/30 12:03:11;;;;;;;9.30;5.90;;;;;;;;;;5100763;28;20513;-70
2023/01/30 12:05:41;;;;;;;12.50;7.07;;;;;;;;;;5100525;28;20454;-70
2023/01/30 12:08:13;;;;;;;9.73;7.03;;;;;;;;;;5100760;28;20494;-69
2023/01/30 12:10:42;;;;;;;11.03;6.93;;;;;;;;;;5100755;28;20450;-69
2023/01/30 12:13:16;;;;;;;11.77;6.70;;;;;;;;;;5100247;28;20537;-70
2023/01/30 12:15:49;;;;;;;12.10;6.47;;;;;;;;;;5100331;28;20530;-70
2023/01/30 12:18:20;;;;;;;10.87;6.37;;;;;;;;;;5100367;28;20479;-70
2023/01/30 12:20:51;;;;;;;10.33;5.80;;;;;;;;;;5099968;28;20440;-70
2023/01/30 12:23:23;;;;;;;8.20;6.20;;;;;;;;;;5100121;28;20515;-71
2023/01/30 12:25:56;;;;;;;8.57;5.43;;;;;;;;;;5100234;28;20451;-70
2023/01/30 12:28:29;;;;;;;10.40;6.40;;;;;;;;;;5100290;28;20471;-69
2023/01/30 12:31:02;;;;;;;10.90;6.87;;;;;;;;;;5100164;28;21835;-70
2023/01/30 12:33:33;;;;;;;11.47;6.40;;;;;;;;;;5099977;28;20895;-70
2023/01/30 12:36:08;;;;;;;13.60;6.70;;;;;;;;;;5098878;28;20474;-70
2023/01/30 12:38:49;;;;;;;11.97;6.97;;;;;;;;;;5100061;28;20807;-69
2023/01/30 12:41:24;;;;;;;8.97;6.07;;;;;;;;;;5100273;28;20454;-70
2023/01/30 12:44:04;;;;;;;7.63;5.77;;;;;;;;;;5095518;28;20888;-69
2023/01/30 12:46:44;;;;;;;10.73;5.97;;;;;;;;;;5100136;28;20530;-70
2023/01/30 12:49:27;;;;;;;10.17;6.17;;;;;;;;;;5099628;28;20467;-70
2023/01/30 12:52:04;;;;;;;9.97;6.33;;;;;;;;;;5099756;28;20463;-70
2023/01/30 12:54:40;;;;;;;9.27;5.57;;;;;;;;;;5099658;28;20459;-70
2023/01/30 12:57:14;;;;;;;10.63;6.00;;;;;;;;;;5099584;28;20519;-71
2023/01/30 12:59:49;;;;;;;14.30;5.70;;;;;;;;;;5099963;28;20453;-70
2023/01/30 13:02:30;;;;;;;9.90;6.40;;;;;;;;;;5099895;28;20482;-69
2023/01/30 13:05:05;;;;;;;12.13;7.30;;;;;;;;;;5093964;28;20510;-71
2023/01/30 13:07:38;;;;;;;12.67;7.50;;;;;;;;;;5088771;28;20470;-70
2023/01/30 13:10:09;;;;;;;10.23;6.67;;;;;;;;;;5098484;28;20519;-69
2023/01/30 13:12:40;;;;;;;9.10;6.20;;;;;;;;;;5098993;28;20820;-70
2023/01/30 13:15:14;;;;;;;9.83;6.03;;;;;;;;;;5099147;28;20493;-70
2023/01/30 13:17:49;;;;;;;13.10;7.73;;;;;;;;;;5099355;28;20501;-72
2023/01/30 13:20:22;;;;;;;11.57;7.00;;;;;;;;;;5098895;28;20443;-70
2023/01/30 13:22:55;;;;;;;11.37;6.40;;;;;;;;;;5098998;28;20487;-71
2023/01/30 13:25:27;;;;;;;11.00;6.63;;;;;;;;;;5099046;28;20858;-71
2023/01/30 13:27:56;;;;;;;10.80;6.53;;;;;;;;;;5098966;28;20470;-72
2023/01/30 13:30:26;;;;;;;11.10;6.50;;;;;;;;;;5099295;28;20443;-71
2023/01/30 13:32:57;;;;;;;10.37;6.10;;;;;;;;;;5099085;28;20460;-72
2023/01/30 13:35:28;;;;;;;11.87;6.47;;;;;;;;;;5097663;28;20471;-70
2023/01/30 13:37:57;;;;;;;10.90;6.50;;;;;;;;;;5096925;28;20470;-72
2023/01/30 13:40:27;;;;;;;11.60;6.37;;;;;;;;;;5097475;28;20446;-70
2023/01/30 13:42:58;;;;;;;14.47;6.73;;;;;;;;;;5097823;28;20548;-70
2023/01/30 13:45:29;;;;;;;9.53;5.93;;;;;;;;;;5097939;28;20474;-70
2023/01/30 13:48:13;;;;;;;9.70;6.00;;;;;;;;;;5097272;28;20444;-70
2023/01/30 13:50:48;;;;;;;10.70;6.57;;;;;;;;;;5097846;28;20467;-70
2023/01/30 13:53:19;;;;;;;9.57;6.03;;;;;;;;;;5098710;28;20495;-71
2023/01/30 13:55:50;;;;;;;11.43;7.07;;;;;;;;;;5086169;28;20443;-70
2023/01/30 13:58:30;;;;;;;10.17;6.47;;;;;;;;;;5098490;28;20506;-71
2023/01/30 14:00:58;;;;;;;11.57;6.47;;;;;;;;;;5098567;28;20488;-72
2023/01/30 14:03:30;;;;;;;14.37;6.63;;;;;;;;;;5098219;28;20483;-72
2023/01/30 14:06:10;;;;;;;13.93;7.27;;;;;;;;;;5098300;28;20471;-72
2023/01/30 14:08:49;;;;;;;11.80;6.97;;;;;;;;;;5098605;28;20454;-71
2023/01/30 14:11:31;;;;;;;11.30;6.73;;;;;;;;;;5098478;28;20439;-71
2023/01/30 14:14:02;;;;;;;10.23;6.23;;;;;;;;;;5098443;28;20451;-71
2023/01/30 14:16:40;;;;;;;11.87;6.97;;;;;;;;;;5098383;28;20475;-71
2023/01/30 14:19:41;;;;;;;12.33;6.70;;;;;;;;;;5097847;28;20443;-71
2023/01/30 14:22:34;;;;;;;11.63;5.90;;;;;;;;;;5046553;28;20436;-71
2023/01/30 14:25:19;;;;;;;12.23;6.60;;;;;;;;;;5032651;28;20449;-71
2023/01/30 14:27:51;;;;;;;11.90;6.77;;;;;;;;;;5058463;28;20452;-70
2023/01/30 14:30:36;;;;;;;10.50;6.43;;;;;;;;;;5097958;28;20461;-70
2023/01/30 14:33:04;;;;;;;9.43;6.67;;;;;;;;;;5098113;28;20463;-70
2023/01/30 14:35:33;;;;;;;12.83;7.37;;;;;;;;;;5097276;28;20472;-71
2023/01/30 14:38:08;;;;;;;12.47;6.77;;;;;;;;;;5097915;28;20540;-70
2023/01/30 14:40:37;;;;;;;12.17;7.40;;;;;;;;;;5098035;28;20524;-71
2023/01/30 14:43:24;;;;;;;9.70;7.03;;;;;;;;;;5097953;28;20484;-71
2023/01/30 14:45:55;;;;;;;12.90;7.13;;;;;;;;;;5097762;28;20926;-71
2023/01/30 14:48:27;;;;;;;9.20;5.93;;;;;;;;;;5097807;28;20875;-71
2023/01/30 14:51:14;;;;;;;11.07;7.00;;;;;;;;;;5097337;28;20489;-70
2023/01/30 14:53:47;;;;;;;13.23;7.90;;;;;;;;;;5097751;28;20458;-69
2023/01/30 14:56:15;;;;;;;12.33;6.90;;;;;;;;;;5097945;28;20455;-71
2023/01/30 14:58:51;;;;;;;12.73;7.80;;;;;;;;;;5098448;28;20446;-70
2023/01/30 15:01:20;;;;;;;14.53;7.73;;;;;;;;;;5101809;28;20518;-70
2023/01/30 15:03:48;;;;;;;10.03;7.30;;;;;;;;;;5101843;28;20483;-69